Terminal Aerodrome Forecast
Issued by NWS Wichita, KS

Home | Current Version | Previous Version | Graphics & Text | Print | Product List | Glossary On
Versions: 1 2 3 4 5 6 7 8 9 10 11 12 13 14 15 16 17 18 19 20 21 22 23 24 25 26
000
FTUS43 KICT 011738
TAFICT
TAF
KICT 011738Z 0118/0218 34005KT P6SM SCT020 BKN060
     FM012300 01005KT P6SM SCT150
     FM020700 VRB03KT 2SM BR BKN008
     FM021400 12007KT P6SM BKN040 BKN120=

USA.gov is the U.S. government's official web portal to all federal, state and local government web resources and services.